AirNav   Bose ProFlight Series 2 Headset
 
 603 users online  

71PA YBP Heliport
York, Pennsylvania, USA

GOING TO YORK?


FAA INFORMATION EFFECTIVE 02 JANUARY 2020

Location

FAA Identifier: 71PA
Lat/Long: 39-58-00.3520N 076-47-58.8900W
39-58.005867N 076-47.981500W
39.9667644,-76.7996917
(estimated)
Elevation: 410 ft. / 125 m (estimated)
Variation: 10W (1985)
From city: 1 mile NW of YORK, PA
Time zone: UTC -5 (UTC -4 during Daylight Saving Time)
Zip code: 17404

Heliport Operations

Heliport use: Private use. Permission required prior to landing
Activation date: 12/1972
Control tower: no
ARTCC: NEW YORK CENTER
FSS: WILLIAMSPORT FLIGHT SERVICE STATION
Attendance: UNATNDD
Wind indicator: yes
Segmented circle: yes

Heliport Communications

WX ASOS at THV (5 nm SW): 119.275 (717-792-5529)
WX ASOS at MDT (14 nm N): 118.8 (717-944-1372)
WX ASOS at CXY (15 nm N): PHONE 717-770-0880

Nearby radio navigation aids

VOR radial/distance  VOR name  Freq  Var
HARr158/23.6HARRISBURG VORTAC112.5010W
LRPr258/25.1LANCASTER VOR/DME117.3009W
EMIr024/29.5WESTMINSTER VORTAC117.9008W
RAVr206/36.4RAVINE VORTAC114.6011W

 
NDB name  Hdg/Dist  Freq  Var  ID
BELLGROVE212/30.332810WBZJ -... --.. .---

Heliport Services

Airframe service: NONE
Powerplant service: NONE

Runway Information

Helipad H1

Dimensions: 32 x 32 ft. / 10 x 10 m
Surface: asphalt, in fair condition
Latitude: 39-58.005867N
Longitude: 076-47.981500W
Elevation: 410.0 ft.
Traffic pattern: leftleft
Markings: none, in fair condition

Heliport Ownership and Management from official FAA records

Ownership: Privately-owned
Owner: YORK BUILDING PRODUCTS CO INC
1020 N HARTLEY
YORK, PA 17405
Phone 717-848-2831
Manager: PHIL REICHARD
PO BOX 1708, 1020 N HARTLEY
YORK, PA 17405
Phone 717-848-2831

Heliport Operational Statistics

Aircraft based on the field: 1
Helicopters: 1
    

Additional Remarks

A52-H1 PLINES E OF PROPERTY.
FOR CD CTC HARRISBURG APCH AT 800-932-0712.

Instrument Procedures

There are no published instrument procedures at 71PA.

Some nearby airports with instrument procedures:

KTHV - York Airport (5 nm SW)
N71 - Donegal Springs Airpark (13 nm NE)
KMDT - Harrisburg International Airport (14 nm N)
KCXY - Capital City Airport (15 nm N)
N94 - Carlisle Airport (22 nm NW)
 
Loc | Ops | Rwys | IFR | FBO | Links
Com | Nav | Svcs | Stats | Notes
Area around 71PA (YBP Heliport)
 
Road maps at: MapQuest Bing Google
 
Aerial photo
No photo
 
Sectional chart

 
Airport distance calculator
Flying to YBP Heliport? Find the distance to fly.

From to 71PA

Sunrise and sunset
Times for 19-Jan-2020
 Local
(UTC-5)
 Zulu
(UTC)
Morning civil twilight06:5711:57
Sunrise07:2612:26
Sunset17:1022:10
Evening civil twilight17:3922:39

Current date and time
Zulu (UTC)  19-Jan-2020 10:32:38
Local (UTC-5)  19-Jan-2020 05:32:38
 
METAR
KTHV 
5nm SW 
191015Z AUTO 27003KT 3/4SM BR SCT002 BKN060 M01/M02 A2972 RMK AO2 T10061017
KMDT 
14nm N 
190956Z VRB04KT 6SM BR BKN003 02/01 A2971 RMK AO2 SLP066 T00170006 $
KCXY 
15nm N 
191015Z AUTO 00000KT 3SM BR SCT060 01/M01 A2973 RMK AO2 I1000 T00061011
TAF
KMDT 
14nm N 
190925Z 1909/2006 12005KT P6SM SCT070 FM191100 27008KT P6SM OVC025 FM191400 30015G25KT P6SM OVC050 FM192100 30015G25KT P6SM SKC
NOTAMs
Click for the latest NOTAMs
NOTAMs are issued by the DoD/FAA and will open in a separate window not controlled by AirNav.

 

 
 

Would you like to see your business listed on this page?

 If your business provides an interesting product or service to pilots, flight crews, aircraft, or users of the YBP Heliport, you should consider listing it here.  To start the listing process, click on the button below
 
Add a business
 

Other Pages about YBP Heliport

Update a link
 
Copyright © AirNav, LLC. All rights reserved. Privacy Policy  Contact